createdAt,value
2018-08-25T00:00:28.575Z,84.25
2018-08-25T00:02:56.925Z,84.17
2018-08-25T00:05:25.167Z,84.01
2018-08-25T00:07:53.433Z,84.38
2018-08-25T00:10:21.737Z,84.15
2018-08-25T00:12:50.009Z,83.63
2018-08-25T00:15:18.313Z,83.37
2018-08-25T00:17:46.573Z,82.98
2018-08-25T00:20:14.837Z,82.94
2018-08-25T00:22:43.093Z,83.54
2018-08-25T00:25:11.359Z,84.10
2018-08-25T00:27:39.609Z,84.24
2018-08-25T00:30:13.026Z,84.41
2018-08-25T00:32:41.281Z,83.96
2018-08-25T00:35:09.591Z,84.56
2018-08-25T00:37:38.925Z,84.28
2018-08-25T00:40:07.217Z,84.89
2018-08-25T00:42:35.486Z,84.66
2018-08-25T00:45:03.787Z,84.96
2018-08-25T00:47:32.029Z,85.58
2018-08-25T00:50:00.314Z,85.76
2018-08-25T00:52:28.650Z,85.71
2018-08-25T00:54:56.986Z,86.22
2018-08-25T00:57:25.303Z,86.10
2018-08-25T00:59:54.305Z,85.95
2018-08-25T01:02:22.589Z,86.93
2018-08-25T01:04:50.843Z,86.79
2018-08-25T01:07:19.102Z,86.90
2018-08-25T01:09:47.364Z,85.90
2018-08-25T01:12:15.620Z,86.00
2018-08-25T01:14:43.993Z,85.97
2018-08-25T01:17:12.273Z,85.75
2018-08-25T01:19:41.559Z,85.94
2018-08-25T01:22:09.860Z,85.81
2018-08-25T01:24:38.149Z,85.64
2018-08-25T01:27:06.401Z,85.58
2018-08-25T01:29:34.663Z,86.22
2018-08-25T01:32:03.164Z,86.67
2018-08-25T01:34:31.404Z,87.14
2018-08-25T01:37:00.717Z,87.84
2018-08-25T01:39:29.739Z,88.12
2018-08-25T01:41:58.010Z,87.69
2018-08-25T01:44:26.777Z,87.96
2018-08-25T01:46:55.033Z,88.02
2018-08-25T01:49:23.310Z,87.84
2018-08-25T01:51:51.568Z,87.97
2018-08-25T01:54:19.884Z,87.70
2018-08-25T01:56:48.145Z,87.27
2018-08-25T01:59:16.422Z,87.37
2018-08-25T02:01:44.682Z,87.56
2018-08-25T02:04:12.935Z,87.14
2018-08-25T02:06:41.431Z,87.82
2018-08-25T02:09:12.342Z,88.16
2018-08-25T02:11:40.945Z,87.38
2018-08-25T02:14:09.815Z,87.60
2018-08-25T02:16:38.627Z,87.52
2018-08-25T02:19:06.881Z,87.14
2018-08-25T02:21:35.149Z,87.03
2018-08-25T02:24:03.390Z,87.42
2018-08-25T02:26:31.669Z,87.33
2018-08-25T02:28:59.912Z,87.27
2018-08-25T02:31:28.189Z,87.17
2018-08-25T02:33:56.469Z,87.39
2018-08-25T02:36:24.741Z,87.45
2018-08-25T02:38:52.993Z,87.28
2018-08-25T02:41:21.301Z,87.41
2018-08-25T02:43:49.551Z,86.94
2018-08-25T02:46:17.863Z,86.55
2018-08-25T02:48:46.134Z,86.76
2018-08-25T02:51:14.373Z,86.96
2018-08-25T02:53:42.633Z,86.65
2018-08-25T02:56:10.880Z,86.58
2018-08-25T02:58:39.162Z,86.26
2018-08-25T03:01:07.670Z,86.14
2018-08-25T03:03:35.973Z,85.35
2018-08-25T03:06:04.224Z,85.42
2018-08-25T03:08:32.585Z,85.26
2018-08-25T03:11:00.843Z,85.05
2018-08-25T03:13:29.141Z,84.64
2018-08-25T03:15:57.391Z,84.29
2018-08-25T03:18:25.690Z,84.86
2018-08-25T03:20:53.932Z,84.66
2018-08-25T03:23:22.209Z,84.90
2018-08-25T03:25:50.453Z,84.06
2018-08-25T03:28:18.797Z,84.33
2018-08-25T03:30:47.044Z,84.52
2018-08-25T03:33:15.322Z,83.93
2018-08-25T03:35:43.597Z,83.07
2018-08-25T03:38:11.882Z,84.22
2018-08-25T03:40:41.177Z,84.04
2018-08-25T03:43:09.425Z,83.43
2018-08-25T03:45:37.697Z,83.58
2018-08-25T03:48:06.129Z,83.19
2018-08-25T03:50:34.398Z,83.36
2018-08-25T03:53:02.653Z,83.59
2018-08-25T03:55:30.983Z,82.90
2018-08-25T03:57:59.188Z,82.10
2018-08-25T04:00:27.465Z,82.45
2018-08-25T04:02:55.721Z,81.95
2018-08-25T04:05:24.001Z,82.15
2018-08-25T04:07:52.249Z,82.10
2018-08-25T04:10:20.515Z,82.26
2018-08-25T04:12:48.820Z,83.12
2018-08-25T04:15:17.193Z,82.66
2018-08-25T04:17:45.437Z,81.97
2018-08-25T04:20:13.715Z,82.22
2018-08-25T04:22:41.990Z,82.00
2018-08-25T04:25:10.234Z,81.64
2018-08-25T04:27:38.473Z,80.66
2018-08-25T04:30:06.990Z,81.15
2018-08-25T04:32:35.653Z,80.89
2018-08-25T04:35:04.030Z,80.30
2018-08-25T04:37:32.275Z,81.04
2018-08-25T04:40:00.533Z,81.69
2018-08-25T04:42:28.802Z,81.59
2018-08-25T04:44:57.052Z,81.32
2018-08-25T04:47:25.324Z,80.86
2018-08-25T04:49:55.229Z,81.00
2018-08-25T04:52:23.551Z,81.24
2018-08-25T04:54:51.797Z,80.48
2018-08-25T04:57:20.085Z,79.99
2018-08-25T04:59:48.336Z,79.62
2018-08-25T05:02:16.609Z,79.13
2018-08-25T05:04:44.859Z,79.09
2018-08-25T05:07:13.129Z,79.19
2018-08-25T05:09:41.381Z,79.52
2018-08-25T05:12:10.725Z,77.96
2018-08-25T05:14:39.396Z,77.33
2018-08-25T05:17:07.665Z,76.88
2018-08-25T05:19:35.914Z,76.58
2018-08-25T05:22:04.192Z,74.91
2018-08-25T05:24:32.431Z,75.10
2018-08-25T05:27:00.717Z,74.79
2018-08-25T05:29:28.969Z,74.08
2018-08-25T05:31:57.213Z,74.01
2018-08-25T05:34:25.481Z,73.08
2018-08-25T05:36:53.785Z,73.61
2018-08-25T05:39:22.058Z,72.92
2018-08-25T05:41:50.325Z,73.62
2018-08-25T05:44:18.655Z,74.70
2018-08-25T05:46:46.841Z,73.93
2018-08-25T05:49:15.141Z,73.81
2018-08-25T05:51:43.399Z,72.13
2018-08-25T05:54:11.677Z,71.73
2018-08-25T05:56:40.074Z,72.13
2018-08-25T05:59:08.349Z,71.85
2018-08-25T06:01:36.604Z,70.78
2018-08-25T06:04:04.898Z,70.16
2018-08-25T06:06:33.205Z,70.51
2018-08-25T06:09:01.474Z,69.31
2018-08-25T06:11:29.725Z,68.80
2018-08-25T06:13:58.040Z,68.67
2018-08-25T06:16:26.294Z,67.92
2018-08-25T06:18:54.599Z,69.10
2018-08-25T06:21:22.849Z,69.29
2018-08-25T06:23:51.124Z,68.52
2018-08-25T06:26:19.426Z,67.98
2018-08-25T06:28:47.677Z,67.61
2018-08-25T06:31:15.953Z,67.45
2018-08-25T06:33:44.193Z,67.53
2018-08-25T06:36:12.486Z,66.58
2018-08-25T06:38:40.729Z,66.19
2018-08-25T06:41:09.046Z,64.98
2018-08-25T06:43:37.409Z,65.03
2018-08-25T06:46:08.069Z,64.46
2018-08-25T06:48:37.520Z,63.70
2018-08-25T06:51:06.813Z,62.63
2018-08-25T06:53:35.301Z,61.91
2018-08-25T06:56:03.679Z,62.75
2018-08-25T06:58:31.969Z,64.32
2018-08-25T07:01:00.257Z,63.35
2018-08-25T07:03:28.709Z,62.66
2018-08-25T07:05:57.010Z,62.10
2018-08-25T07:08:25.265Z,63.56
2018-08-25T07:10:55.567Z,62.81
2018-08-25T07:13:23.869Z,63.39
2018-08-25T07:15:52.200Z,62.78
2018-08-25T07:18:20.457Z,62.47
2018-08-25T07:20:48.737Z,61.72
2018-08-25T07:23:17.038Z,61.67
2018-08-25T07:25:47.476Z,61.47
2018-08-25T07:28:15.656Z,61.81
2018-08-25T07:30:43.926Z,61.39
2018-08-25T07:33:12.207Z,61.58
2018-08-25T07:35:40.514Z,62.22
2018-08-25T07:38:08.866Z,62.18
2018-08-25T07:40:38.139Z,62.23
2018-08-25T07:43:06.641Z,61.70
2018-08-25T07:45:34.905Z,61.93
2018-08-25T07:48:03.170Z,61.72
2018-08-25T07:50:31.409Z,61.34
2018-08-25T07:52:59.708Z,61.24
2018-08-25T07:55:28.109Z,60.95
2018-08-25T07:57:56.382Z,60.68
2018-08-25T08:00:24.629Z,59.44
2018-08-25T08:02:53.071Z,60.00
2018-08-25T08:05:21.337Z,58.66
2018-08-25T08:07:49.649Z,57.96
2018-08-25T08:10:17.900Z,58.29
2018-08-25T08:12:46.229Z,59.58
2018-08-25T08:15:14.613Z,59.84
2018-08-25T08:17:42.862Z,59.23
2018-08-25T08:20:11.640Z,58.44
2018-08-25T08:22:39.902Z,59.53
2018-08-25T08:25:08.185Z,59.38
2018-08-25T08:27:36.511Z,60.76
2018-08-25T08:30:05.749Z,59.70
2018-08-25T08:32:34.009Z,59.46
2018-08-25T08:35:02.289Z,60.24
2018-08-25T08:37:30.540Z,60.03
2018-08-25T08:39:58.805Z,59.34
2018-08-25T08:42:27.178Z,60.78
2018-08-25T08:44:55.347Z,61.31
2018-08-25T08:47:23.657Z,60.75
2018-08-25T08:49:52.238Z,62.07
2018-08-25T08:52:20.539Z,62.94
2018-08-25T08:54:48.808Z,63.25
2018-08-25T08:57:17.068Z,62.95
2018-08-25T08:59:45.442Z,64.58
2018-08-25T09:02:13.693Z,64.56
2018-08-25T09:04:42.001Z,64.72
2018-08-25T09:07:10.349Z,63.13
2018-08-25T09:09:38.997Z,64.24
2018-08-25T09:12:07.426Z,64.95
2018-08-25T09:14:35.730Z,66.21
2018-08-25T09:19:54.973Z,65.44
2018-08-25T09:22:23.389Z,67.39
2018-08-25T09:24:51.733Z,67.15
2018-08-25T09:27:20.041Z,66.97
2018-08-25T09:29:48.284Z,64.34
2018-08-25T09:32:16.553Z,64.87
2018-08-25T09:34:44.802Z,64.61
2018-08-25T09:37:13.081Z,64.86
2018-08-25T09:39:41.325Z,64.28
2018-08-25T09:42:09.590Z,64.01
2018-08-25T09:44:38.841Z,62.02
2018-08-25T09:47:07.205Z,63.53
2018-08-25T09:49:35.381Z,63.00
2018-08-25T09:52:03.706Z,64.34
2018-08-25T09:54:31.967Z,61.79
2018-08-25T09:57:00.265Z,62.78
2018-08-25T09:59:28.508Z,64.03
2018-08-25T10:02:00.771Z,63.22
2018-08-25T10:04:29.937Z,60.94
2018-08-25T10:06:58.276Z,60.93
2018-08-25T10:09:26.549Z,60.65
2018-08-25T10:11:54.805Z,61.49
2018-08-25T10:14:23.121Z,60.41
2018-08-25T10:16:51.466Z,61.21
2018-08-25T10:19:19.678Z,61.57
2018-08-25T10:21:47.930Z,61.19
2018-08-25T10:24:16.207Z,59.73
2018-08-25T10:26:44.598Z,59.36
2018-08-25T10:29:12.888Z,59.29
2018-08-25T10:31:41.143Z,59.29
2018-08-25T10:34:09.427Z,59.10
2018-08-25T10:36:37.833Z,59.58
2018-08-25T10:39:09.469Z,61.07
2018-08-25T10:41:37.771Z,60.64
2018-08-25T10:44:06.673Z,60.99
2018-08-25T10:46:35.025Z,61.27
2018-08-25T10:49:03.303Z,62.67
2018-08-25T10:51:31.557Z,63.26
2018-08-25T10:53:59.908Z,61.93
2018-08-25T10:56:28.284Z,62.08
2018-08-25T10:58:56.571Z,61.21
2018-08-25T11:01:24.857Z,62.21
2018-08-25T11:03:53.158Z,62.68
2018-08-25T11:06:21.441Z,61.90
2018-08-25T11:08:49.746Z,61.67
2018-08-25T11:11:18.013Z,62.28
2018-08-25T11:13:46.433Z,62.52
2018-08-25T11:16:14.819Z,62.40
2018-08-25T11:18:43.252Z,60.80
2018-08-25T11:21:12.674Z,60.99
2018-08-25T11:23:40.983Z,60.84
2018-08-25T11:26:09.353Z,59.84
2018-08-25T11:28:37.612Z,58.79
2018-08-25T11:31:05.914Z,59.32
2018-08-25T11:33:34.210Z,59.18
2018-08-25T11:36:02.533Z,60.24
2018-08-25T11:38:31.069Z,56.61
2018-08-25T11:40:59.367Z,55.00
2018-08-25T11:43:28.810Z,52.31
2018-08-25T11:45:57.144Z,51.67
2018-08-25T11:48:25.415Z,52.51
2018-08-25T11:50:53.718Z,57.87
2018-08-25T11:53:22.031Z,56.30
2018-08-25T11:55:50.314Z,58.01
2018-08-25T11:58:18.697Z,60.49
2018-08-25T12:00:46.994Z,62.63
2018-08-25T12:03:15.306Z,63.01
2018-08-25T12:05:43.605Z,63.44
2018-08-25T12:08:11.925Z,64.76
2018-08-25T12:10:40.181Z,64.12
2018-08-25T12:13:08.465Z,62.70
2018-08-25T12:15:36.933Z,63.23
2018-08-25T12:18:06.281Z,65.22
2018-08-25T12:20:34.553Z,66.12
2018-08-25T12:23:02.845Z,67.50
2018-08-25T12:25:31.164Z,69.01
2018-08-25T12:27:59.408Z,71.40
2018-08-25T12:30:27.678Z,74.54
2018-08-25T12:32:55.952Z,76.06
2018-08-25T12:35:24.233Z,78.54
2018-08-25T12:37:53.681Z,77.69
2018-08-25T12:40:21.938Z,79.66
2018-08-25T12:42:50.218Z,79.69
2018-08-25T12:45:18.493Z,79.25
2018-08-25T12:47:46.758Z,78.88
2018-08-25T12:50:15.317Z,78.85
2018-08-25T12:52:43.741Z,77.10
2018-08-25T12:55:12.057Z,76.68
2018-08-25T12:57:40.305Z,76.20
2018-08-25T13:00:08.610Z,76.84
2018-08-25T13:02:36.885Z,73.92
2018-08-25T13:05:05.435Z,73.16
2018-08-25T13:07:33.785Z,72.13
2018-08-25T13:10:02.490Z,70.82
2018-08-25T13:12:30.737Z,70.38
2018-08-25T13:14:59.051Z,69.24
2018-08-25T13:17:28.329Z,70.55
2018-08-25T13:19:57.665Z,72.26
2018-08-25T13:22:25.943Z,71.64
2018-08-25T13:24:56.346Z,72.16
2018-08-25T13:27:24.629Z,71.66
2018-08-25T13:29:52.944Z,73.86
2018-08-25T13:32:21.226Z,73.28
2018-08-25T13:34:49.530Z,73.35
2018-08-25T13:37:17.808Z,71.77
2018-08-25T13:39:46.127Z,71.21
2018-08-25T13:42:14.385Z,73.07
2018-08-25T13:44:42.658Z,72.05
2018-08-25T13:47:11.011Z,71.39
2018-08-25T13:49:39.320Z,69.85
2018-08-25T13:52:09.461Z,69.62
2018-08-25T13:54:37.726Z,70.72
2018-08-25T13:57:06.035Z,71.45
2018-08-25T13:59:34.299Z,71.32
2018-08-25T14:02:02.581Z,71.66
2018-08-25T14:04:30.849Z,72.07
2018-08-25T14:06:59.235Z,73.18
2018-08-25T14:09:27.493Z,73.40
2018-08-25T14:11:55.778Z,73.00
2018-08-25T14:14:24.069Z,74.62
2018-08-25T14:16:52.394Z,75.03
2018-08-25T14:19:20.641Z,76.42
2018-08-25T14:21:48.966Z,76.14
2018-08-25T14:24:17.240Z,77.17
2018-08-25T14:26:46.548Z,76.43
2018-08-25T14:29:14.792Z,75.93
2018-08-25T14:31:43.099Z,75.87
2018-08-25T14:34:11.393Z,75.93
2018-08-25T14:36:39.702Z,76.90
2018-08-25T14:39:10.353Z,76.63
2018-08-25T14:41:39.688Z,76.64
2018-08-25T14:44:07.929Z,76.35
2018-08-25T14:46:38.313Z,76.90
2018-08-25T14:49:07.018Z,75.80
2018-08-25T14:51:35.305Z,73.66
2018-08-25T14:54:03.608Z,72.08
2018-08-25T14:56:31.906Z,72.73
2018-08-25T14:59:00.253Z,70.37
2018-08-25T15:01:28.548Z,69.10
2018-08-25T15:03:57.280Z,67.42
2018-08-25T15:06:25.736Z,65.89
2018-08-25T15:08:54.083Z,60.43
2018-08-25T15:11:22.386Z,57.37
2018-08-25T15:13:50.741Z,53.53
2018-08-25T15:16:19.047Z,51.66
2018-08-25T15:18:47.422Z,51.08
2018-08-25T15:21:15.749Z,55.87
2018-08-25T15:23:44.125Z,52.28
2018-08-25T15:26:14.494Z,51.72
2018-08-25T15:28:42.829Z,57.30
2018-08-25T15:31:11.181Z,54.89
2018-08-25T15:33:39.454Z,57.85
2018-08-25T15:36:07.980Z,60.73
2018-08-25T15:38:36.240Z,60.85
2018-08-25T15:41:04.719Z,61.61
2018-08-25T15:43:33.065Z,61.07
2018-08-25T15:46:01.324Z,62.72
2018-08-25T15:48:29.573Z,62.09
2018-08-25T15:50:57.854Z,56.20
2018-08-25T15:53:27.142Z,44.81
2018-08-25T15:58:46.422Z,36.60
2018-08-25T16:01:14.689Z,36.12
2018-08-25T16:03:44.021Z,33.01
2018-08-25T16:06:13.607Z,34.23
2018-08-25T16:08:41.873Z,35.60
2018-08-25T16:11:10.149Z,33.74
2018-08-25T16:13:38.465Z,31.17
2018-08-25T16:16:06.789Z,31.72
2018-08-25T16:18:35.452Z,36.25
2018-08-25T16:21:03.985Z,32.07
2018-08-25T16:23:32.542Z,31.28
2018-08-25T16:26:00.874Z,30.97
2018-08-25T16:28:29.246Z,34.48
2018-08-25T16:30:57.567Z,35.51
2018-08-25T16:33:25.952Z,36.83
2018-08-25T16:35:55.286Z,37.91
2018-08-25T16:38:23.654Z,40.59
2018-08-25T16:40:52.940Z,36.54
2018-08-25T16:43:21.275Z,36.91
2018-08-25T16:45:49.633Z,35.91
2018-08-25T16:48:17.932Z,35.11
2018-08-25T16:50:46.233Z,36.24
2018-08-25T16:53:14.532Z,45.89
2018-08-25T16:55:42.822Z,52.08
2018-08-25T16:58:12.157Z,54.68
2018-08-25T17:00:40.442Z,56.58
2018-08-25T17:03:08.971Z,58.90
2018-08-25T17:05:37.289Z,60.10
2018-08-25T17:08:05.572Z,61.69
2018-08-25T17:10:33.865Z,62.12
2018-08-25T17:13:02.153Z,62.70
2018-08-25T17:15:30.439Z,62.31
2018-08-25T17:17:58.747Z,63.41
2018-08-25T17:20:27.345Z,63.91
2018-08-25T17:22:56.721Z,64.48
2018-08-25T17:25:25.030Z,63.67
2018-08-25T17:27:53.317Z,64.57
2018-08-25T17:30:21.638Z,64.53
2018-08-25T17:32:49.981Z,64.23
2018-08-25T17:35:19.109Z,64.32
2018-08-25T17:37:47.687Z,65.40
2018-08-25T17:40:16.054Z,65.06
2018-08-25T17:42:45.412Z,65.81
2018-08-25T17:45:13.790Z,66.47
2018-08-25T17:47:42.018Z,68.05
2018-08-25T17:50:10.353Z,68.93
2018-08-25T17:52:38.619Z,69.65
2018-08-25T17:55:06.960Z,70.78
2018-08-25T17:57:35.427Z,70.95
2018-08-25T18:00:03.646Z,71.15
2018-08-25T18:02:31.926Z,71.16
2018-08-25T18:05:00.230Z,71.01
2018-08-25T18:07:28.480Z,70.17
2018-08-25T18:09:57.125Z,70.49
2018-08-25T18:12:25.390Z,70.90
2018-08-25T18:14:53.654Z,70.68
2018-08-25T18:17:21.993Z,71.14
2018-08-25T18:19:50.197Z,70.82
2018-08-25T18:22:18.505Z,70.79
2018-08-25T18:24:47.198Z,71.89
2018-08-25T18:27:15.501Z,72.22
2018-08-25T18:29:43.829Z,72.73
2018-08-25T18:32:13.714Z,73.26
2018-08-25T18:34:41.997Z,73.07
2018-08-25T18:37:10.282Z,73.64
2018-08-25T18:39:38.801Z,74.06
2018-08-25T18:42:08.212Z,74.08
2018-08-25T18:44:36.478Z,74.58
2018-08-25T18:47:04.985Z,74.53
2018-08-25T18:49:34.470Z,74.77
2018-08-25T18:52:02.805Z,75.41
2018-08-25T18:54:32.173Z,75.05
2018-08-25T18:57:01.439Z,76.03
2018-08-25T18:59:29.985Z,75.44
2018-08-25T19:01:58.394Z,76.06
2018-08-25T19:04:26.535Z,76.48
2018-08-25T19:06:54.870Z,76.41
2018-08-25T19:09:23.214Z,75.96
2018-08-25T19:11:51.705Z,75.83
2018-08-25T19:14:21.097Z,76.80
2018-08-25T19:16:50.291Z,76.94
2018-08-25T19:19:18.609Z,77.36
2018-08-25T19:21:46.877Z,77.89
2018-08-25T19:24:15.235Z,77.73
2018-08-25T19:26:43.454Z,78.08
2018-08-25T19:29:12.146Z,79.17
2018-08-25T19:31:40.433Z,78.54
2018-08-25T19:34:08.761Z,79.72
2018-08-25T19:36:37.033Z,79.82
2018-08-25T19:39:07.778Z,79.75
2018-08-25T19:41:39.689Z,80.13
2018-08-25T19:44:08.026Z,80.90
2018-08-25T19:46:36.608Z,81.83
2018-08-25T19:49:05.079Z,81.33
2018-08-25T19:51:33.349Z,81.67
2018-08-25T19:54:01.982Z,81.93
2018-08-25T19:56:30.239Z,82.56
2018-08-25T19:58:58.590Z,82.97
2018-08-25T20:01:26.868Z,82.77
2018-08-25T20:03:55.205Z,82.62
2018-08-25T20:06:23.481Z,82.89
2018-08-25T20:08:52.028Z,82.69
2018-08-25T20:11:20.374Z,83.25
2018-08-25T20:13:48.700Z,83.94
2018-08-25T20:16:17.793Z,83.27
2018-08-25T20:18:46.121Z,83.37
2018-08-25T20:21:14.600Z,83.56
2018-08-25T20:23:42.921Z,83.73
2018-08-25T20:26:11.429Z,84.17
2018-08-25T20:28:39.729Z,84.32
2018-08-25T20:31:08.061Z,84.55
2018-08-25T20:33:36.357Z,84.27
2018-08-25T20:36:04.816Z,84.61
2018-08-25T20:38:33.151Z,85.41
2018-08-25T20:41:01.554Z,84.89
2018-08-25T20:43:29.901Z,84.89
2018-08-25T20:45:58.366Z,85.11
2018-08-25T20:48:26.597Z,85.62
2018-08-25T20:50:54.949Z,85.31
2018-08-25T20:53:24.288Z,84.45
2018-08-25T20:55:52.553Z,84.34
2018-08-25T20:58:20.857Z,84.25
2018-08-25T21:00:49.300Z,84.39
2018-08-25T21:03:17.538Z,84.33
2018-08-25T21:05:45.821Z,84.03
2018-08-25T21:08:14.121Z,83.29
2018-08-25T21:10:42.422Z,82.49
2018-08-25T21:13:10.730Z,82.04
2018-08-25T21:15:39.133Z,81.38
2018-08-25T21:18:07.542Z,80.04
2018-08-25T21:20:36.965Z,79.52
2018-08-25T21:23:05.411Z,78.86
2018-08-25T21:25:33.689Z,79.03
2018-08-25T21:28:01.962Z,78.78
2018-08-25T21:30:30.276Z,78.79
2018-08-25T21:32:58.610Z,79.18
2018-08-25T21:35:26.888Z,78.84
2018-08-25T21:37:56.232Z,79.50
2018-08-25T21:40:25.593Z,79.60
2018-08-25T21:42:53.921Z,79.28
2018-08-25T21:45:22.183Z,79.80
2018-08-25T21:47:50.536Z,80.17
2018-08-25T21:50:18.811Z,80.47
2018-08-25T21:52:47.134Z,81.11
2018-08-25T21:55:15.392Z,80.78
2018-08-25T21:57:43.665Z,81.00
2018-08-25T22:00:11.998Z,81.41
2018-08-25T22:02:40.258Z,81.70
2018-08-25T22:05:09.601Z,81.83
2018-08-25T22:07:37.925Z,82.43
2018-08-25T22:10:06.230Z,82.33
2018-08-25T22:12:34.481Z,82.35
2018-08-25T22:15:02.823Z,82.58
2018-08-25T22:17:31.101Z,82.70
2018-08-25T22:19:59.409Z,82.89
2018-08-25T22:22:27.723Z,82.92
2018-08-25T22:25:00.729Z,82.43
2018-08-25T22:27:29.012Z,82.25
2018-08-25T22:29:57.326Z,82.27
2018-08-25T22:32:25.633Z,82.30
2018-08-25T22:34:53.977Z,82.40
2018-08-25T22:37:22.341Z,82.19
2018-08-25T22:39:50.673Z,82.35
2018-08-25T22:42:18.985Z,82.01
2018-08-25T22:44:47.283Z,82.56
2018-08-25T22:47:15.582Z,82.96
2018-08-25T22:49:43.894Z,82.75
2018-08-25T22:52:12.181Z,82.92
2018-08-25T22:54:40.537Z,83.04
2018-08-25T22:57:08.865Z,83.09
2018-08-25T22:59:37.143Z,82.22
2018-08-25T23:02:06.545Z,83.02
2018-08-25T23:04:34.817Z,83.36
2018-08-25T23:07:03.121Z,83.61
2018-08-25T23:09:31.406Z,83.18
2018-08-25T23:11:59.699Z,82.62
2018-08-25T23:14:28.071Z,82.27
2018-08-25T23:16:57.512Z,82.12
2018-08-25T23:19:25.794Z,82.37
2018-08-25T23:21:54.105Z,81.83
2018-08-25T23:24:22.365Z,82.03
2018-08-25T23:26:51.244Z,82.47
2018-08-25T23:29:19.565Z,82.71
2018-08-25T23:31:48.932Z,83.09
2018-08-25T23:34:17.208Z,83.43
2018-08-25T23:36:45.520Z,83.01
2018-08-25T23:39:13.811Z,83.24
2018-08-25T23:41:42.165Z,83.50
2018-08-25T23:44:10.662Z,83.61
2018-08-25T23:46:39.024Z,83.77
2018-08-25T23:49:07.342Z,83.42
2018-08-25T23:51:35.838Z,83.12
2018-08-25T23:54:04.213Z,82.86
2018-08-25T23:56:32.699Z,83.12
2018-08-25T23:59:01.047Z,83.43
